Timber Mountain, Nevada Weather observations

Data are for 10 minute period ending at time listed.
 Day   Time   Solar   Ave.   Ave.  Ave.  Vector  Max.   Baro.   Total    
  of    of     Rad.   Air    Rel.  Wind   Wind   Wind  Press.  Precip.   
Year   Day            Temp.  Hum.  Speed  Dir.   Gust                    
2016   (PST)  Kw/m2    F      %     mph   deg.    mph    mb.     in.     
-------------------------------------------------------------------------
 123   17:00   0.43   59.3    36    4.2    83     8.4   813.6    0.00 
 123   18:00   0.20   57.6    39    4.4   123     8.2   813.5    0.00 
 123   19:00   0.02   49.6    62    3.9   117     6.6   813.7    0.00 
 123   20:00   0.00   44.4    72    4.4   113     6.1   814.1    0.00 
 123   21:00   0.00   42.9    74    4.5   116     6.7   814.5    0.00 
 123   22:00   0.00   40.9    79    3.9   109     6.3   814.5    0.00 
 123   23:00   0.00   40.8    77    4.9   117     7.3   814.6    0.00 
 124    0:00   100.00  99999.0   99999  99999.0   99999   99999.0   99999.0   99999.00 
 124    1:00   0.00   40.2    75    5.8   121     8.1   814.2    0.00 
 124    2:00   0.00   40.4    73    5.1   119     7.1   814.1    0.00 
 124    3:00   0.00   40.1    74    5.4   120     7.5   814.1    0.00 
 124    4:00   0.00   39.8    74    4.9    96     7.9   814.0    0.00 
 124    5:00   0.00   40.9    69    5.7    99     9.3   814.2    0.00 
 124    6:00   0.07   45.6    59    7.1   107    12.4   814.5    0.00 
 124    7:00   0.30   54.4    44    6.6    98    16.7   814.7    0.00 
 124    8:00   0.52   55.8    41   11.6   102    22.7   814.8    0.00 
 124    9:00   0.72   57.2    38   12.7    94    25.0   814.9    0.00 
 124   10:00   0.89   58.4    36   13.8   105    25.5   815.0    0.00 
 124   11:00   0.99   59.8    36   13.6   108    24.7   815.1    0.00 
 124   12:00   1.03   61.4    33   11.2   112    21.4   814.7    0.00 
 124   13:00   1.02   62.8    29    9.8   111    19.7   814.2    0.00 
 124   14:00   0.92   64.1    27    9.3   120    20.9   813.8    0.00 
 124   15:00   0.82   65.1    23    9.0   102    19.1   813.3    0.00 
 124   16:00   0.64   65.1    24    7.9   113    16.1   812.9    0.00 

Return to Timber Mountain graphs page.


Western Regional Climate Center,wrcc@dri.edu